Time;durP1;ratioP1;P1;durP2;ratioP2;P2;SDS_P1;SDS_P2;PMS_P1;PMS_P2;Temp;Humidity;BMP_temperature;BMP_pressure;BME280_temperature;BME280_humidity;BME280_pressure;Samples;Min_cycle;Max_cycle;Signal;HPM_P1;HPM_P2
2024/03/12 00:00:16;;;;;;;7.83;5.00;;;9.50;99.90;;;;;;5009985;28;20595;-68
2024/03/12 00:02:45;;;;;;;12.90;6.00;;;9.60;99.90;;;;;;5011457;28;20475;-68
2024/03/12 00:05:13;;;;;;;10.50;6.00;;;9.60;99.90;;;;;;5012772;28;20459;-68
2024/03/12 00:07:41;;;;;;;10.83;5.93;;;9.60;99.90;;;;;;5010325;28;20447;-68
2024/03/12 00:10:14;;;;;;;9.37;4.93;;;9.60;99.90;;;;;;5008503;28;20794;-68
2024/03/12 00:12:43;;;;;;;10.07;5.07;;;9.60;99.90;;;;;;5004334;28;21212;-68
2024/03/12 00:15:10;;;;;;;9.13;6.93;;;9.70;99.90;;;;;;5018458;28;20472;-68
2024/03/12 00:17:37;;;;;;;10.63;5.93;;;9.60;99.90;;;;;;5015331;28;20450;-68
2024/03/12 00:20:15;;;;;;;13.90;6.00;;;9.50;99.90;;;;;;5010586;28;20905;-68
2024/03/12 00:22:43;;;;;;;12.50;7.80;;;9.50;99.90;;;;;;5008766;28;20472;-69
2024/03/12 00:25:11;;;;;;;8.80;6.37;;;9.60;99.90;;;;;;5218450;22;20956;-71
2024/03/12 00:27:40;;;;;;;9.93;7.90;;;9.50;99.90;;;;;;5027962;28;20462;-72
2024/03/12 00:30:09;;;;;;;7.07;5.10;;;9.40;99.90;;;;;;5037053;28;20888;-72
2024/03/12 00:32:36;;;;;;;6.97;5.40;;;9.40;99.90;;;;;;5032981;28;20547;-72
2024/03/12 00:35:04;;;;;;;10.80;5.83;;;9.40;99.90;;;;;;5033451;28;20468;-71
2024/03/12 00:37:31;;;;;;;10.53;7.93;;;9.40;99.90;;;;;;5033258;28;20490;-70
2024/03/12 00:39:58;;;;;;;10.93;7.37;;;9.30;99.90;;;;;;5033846;28;20483;-70
2024/03/12 00:42:26;;;;;;;11.43;6.90;;;9.40;99.90;;;;;;5030760;28;21139;-72
2024/03/12 00:44:53;;;;;;;12.50;7.67;;;9.40;99.90;;;;;;5036494;28;20425;-73
2024/03/12 00:47:21;;;;;;;12.50;8.17;;;9.40;99.90;;;;;;5037957;28;21307;-71
2024/03/12 00:49:48;;;;;;;11.63;7.00;;;9.40;99.90;;;;;;5037883;28;20458;-73
2024/03/12 00:52:17;;;;;;;19.13;9.77;;;9.30;99.90;;;;;;5045865;28;20430;-73
2024/03/12 00:54:45;;;;;;;16.30;8.47;;;9.20;99.90;;;;;;5038043;28;20525;-72
2024/03/12 00:57:13;;;;;;;12.83;8.83;;;9.30;99.90;;;;;;5035370;28;20923;-73
2024/03/12 00:59:41;;;;;;;13.07;7.87;;;9.30;99.90;;;;;;5038208;28;20540;-72
2024/03/12 01:02:10;;;;;;;17.00;8.30;;;9.30;99.90;;;;;;5040399;28;20458;-72
2024/03/12 01:04:38;;;;;;;16.87;11.33;;;9.30;99.90;;;;;;5035235;28;20448;-71
2024/03/12 01:07:07;;;;;;;24.50;8.57;;;9.20;99.90;;;;;;5027253;28;20458;-72
2024/03/12 01:09:39;;;;;;;19.90;9.60;;;9.30;99.90;;;;;;5043089;28;20462;-72
2024/03/12 01:12:09;;;;;;;17.37;8.73;;;9.30;99.90;;;;;;5043464;28;20459;-73
2024/03/12 01:14:36;;;;;;;17.50;8.27;;;9.30;99.90;;;;;;5034834;28;21180;-72
2024/03/12 01:17:06;;;;;;;12.93;6.80;;;9.30;99.90;;;;;;5041143;28;20619;-73
2024/03/12 01:19:33;;;;;;;12.60;9.33;;;9.40;99.90;;;;;;5037137;28;20484;-73
2024/03/12 01:22:00;;;;;;;17.40;8.87;;;9.30;99.90;;;;;;5038477;28;20460;-73
2024/03/12 01:24:27;;;;;;;16.57;7.20;;;9.30;99.90;;;;;;5035115;28;20464;-73
2024/03/12 01:26:55;;;;;;;20.77;11.47;;;9.40;99.90;;;;;;5037604;28;20490;-74
2024/03/12 01:29:22;;;;;;;15.17;9.27;;;9.40;99.90;;;;;;5035785;28;20490;-73
2024/03/12 01:31:50;;;;;;;20.03;9.70;;;9.40;99.90;;;;;;5042756;28;20920;-72
2024/03/12 01:34:19;;;;;;;10.90;6.90;;;9.40;99.90;;;;;;5038898;28;20524;-74
2024/03/12 01:36:47;;;;;;;13.17;8.47;;;9.40;99.90;;;;;;5030232;28;20494;-73
2024/03/12 01:39:16;;;;;;;14.93;7.80;;;9.40;99.90;;;;;;5032861;28;20484;-73
2024/03/12 01:41:44;;;;;;;15.60;7.00;;;9.40;99.90;;;;;;5034269;28;20459;-73
2024/03/12 01:44:11;;;;;;;19.67;8.97;;;9.40;99.90;;;;;;5026857;28;20463;-72
2024/03/12 01:46:39;;;;;;;17.43;7.13;;;9.30;99.90;;;;;;5040480;28;20475;-72
2024/03/12 01:49:09;;;;;;;15.80;9.00;;;9.30;99.90;;;;;;5032123;28;20475;-72
2024/03/12 01:51:37;;;;;;;12.70;6.93;;;9.20;99.90;;;;;;5031766;28;20472;-73
2024/03/12 01:54:04;;;;;;;20.97;8.97;;;9.10;99.90;;;;;;5039266;28;21037;-73
2024/03/12 01:56:31;;;;;;;20.83;9.07;;;9.00;99.90;;;;;;5034030;28;20994;-73
2024/03/12 01:58:58;;;;;;;17.77;9.53;;;9.00;99.90;;;;;;5033256;28;20466;-73
2024/03/12 02:01:25;;;;;;;18.33;6.40;;;9.00;99.90;;;;;;5042541;28;20509;-73
2024/03/12 02:03:52;;;;;;;17.60;7.40;;;9.00;99.90;;;;;;5035647;28;20471;-72
2024/03/12 02:06:19;;;;;;;11.93;5.47;;;8.90;99.90;;;;;;5033839;28;20459;-72
2024/03/12 02:08:48;;;;;;;15.37;7.23;;;8.90;99.90;;;;;;5032410;28;20499;-72
2024/03/12 02:11:14;;;;;;;25.30;9.83;;;8.90;99.90;;;;;;5040591;28;20567;-72
2024/03/12 02:13:41;;;;;;;25.80;10.57;;;8.90;99.90;;;;;;5035904;28;20494;-72
2024/03/12 02:16:10;;;;;;;22.43;9.03;;;8.90;99.90;;;;;;5037869;28;20830;-74
2024/03/12 02:18:36;;;;;;;20.40;14.23;;;9.10;99.90;;;;;;5036908;28;20450;-72
2024/03/12 02:21:04;;;;;;;18.07;7.40;;;9.10;99.90;;;;;;5031736;28;20604;-72
2024/03/12 02:23:39;;;;;;;27.33;11.33;;;9.00;99.90;;;;;;5034693;28;20836;-73
2024/03/12 02:26:06;;;;;;;27.70;13.90;;;9.00;99.90;;;;;;5029180;28;20559;-73
2024/03/12 02:28:33;;;;;;;20.60;10.73;;;9.00;99.90;;;;;;5036635;28;20454;-73
2024/03/12 02:31:00;;;;;;;17.17;11.67;;;8.90;99.90;;;;;;5032770;28;20442;-72
2024/03/12 02:33:27;;;;;;;40.63;18.77;;;9.00;99.90;;;;;;5026169;28;20475;-72
2024/03/12 02:35:53;;;;;;;25.43;11.90;;;8.80;99.90;;;;;;5032629;28;21073;-72
2024/03/12 02:38:21;;;;;;;27.73;7.30;;;8.60;99.90;;;;;;5023301;28;21060;-72
2024/03/12 02:40:49;;;;;;;24.50;12.40;;;8.80;99.90;;;;;;5026690;28;21046;-72
2024/03/12 02:43:16;;;;;;;34.87;12.77;;;8.80;99.90;;;;;;5020875;28;20561;-72
2024/03/12 02:45:43;;;;;;;30.63;14.50;;;8.90;99.90;;;;;;5023932;28;20434;-73
2024/03/12 02:48:12;;;;;;;29.87;12.20;;;8.90;99.90;;;;;;5031253;28;20451;-73
2024/03/12 02:50:39;;;;;;;11.80;5.87;;;8.90;99.90;;;;;;5030855;28;20451;-74
2024/03/12 02:53:06;;;;;;;34.93;12.90;;;8.90;99.90;;;;;;5025843;28;20478;-72
2024/03/12 02:55:33;;;;;;;21.80;12.43;;;8.90;99.90;;;;;;5030087;28;20459;-72
2024/03/12 02:58:04;;;;;;;24.17;13.93;;;8.90;99.90;;;;;;5029193;28;20450;-72
2024/03/12 03:00:31;;;;;;;27.13;13.30;;;8.80;99.90;;;;;;5035027;28;20483;-72
2024/03/12 03:02:57;;;;;;;31.90;14.73;;;8.80;99.90;;;;;;5033142;28;20458;-71
2024/03/12 03:05:24;;;;;;;26.10;14.23;;;8.80;99.90;;;;;;5027373;28;20964;-71
2024/03/12 03:07:51;;;;;;;22.63;12.63;;;8.90;99.90;;;;;;5032252;28;20486;-71
2024/03/12 03:10:18;;;;;;;26.80;10.97;;;8.90;99.90;;;;;;5027894;28;20482;-72
2024/03/12 03:12:45;;;;;;;20.23;12.70;;;8.90;99.90;;;;;;5021553;28;20580;-72
2024/03/12 03:15:13;;;;;;;31.70;15.90;;;9.00;99.90;;;;;;5020786;28;20457;-72
2024/03/12 03:17:42;;;;;;;30.13;14.50;;;9.00;99.90;;;;;;5031420;28;20910;-72
2024/03/12 03:20:11;;;;;;;35.63;17.47;;;9.10;99.90;;;;;;5033573;28;20482;-73
2024/03/12 03:22:39;;;;;;;32.80;14.40;;;9.10;99.90;;;;;;5029573;28;20434;-73
2024/03/12 03:25:06;;;;;;;37.33;13.67;;;9.20;99.90;;;;;;5031732;28;20929;-73
2024/03/12 03:27:33;;;;;;;35.70;18.83;;;9.10;99.90;;;;;;5023566;28;20455;-72
2024/03/12 03:30:00;;;;;;;33.43;15.73;;;8.90;99.90;;;;;;5026734;28;20486;-72
2024/03/12 03:32:28;;;;;;;33.80;17.77;;;9.00;99.90;;;;;;5030634;28;20459;-72
2024/03/12 03:34:55;;;;;;;34.90;16.47;;;8.90;99.90;;;;;;5034878;28;20491;-72
2024/03/12 03:37:22;;;;;;;40.83;15.93;;;9.00;99.90;;;;;;5021315;28;20493;-72
2024/03/12 03:39:48;;;;;;;22.63;11.97;;;8.90;99.90;;;;;;5024326;28;20890;-72
2024/03/12 03:42:16;;;;;;;21.80;15.47;;;9.00;99.90;;;;;;5023881;28;21043;-72
2024/03/12 03:44:42;;;;;;;33.93;14.20;;;8.80;99.90;;;;;;5027405;28;20438;-73
2024/03/12 03:47:09;;;;;;;33.83;17.30;;;8.80;99.90;;;;;;5033186;28;20476;-73
2024/03/12 03:49:37;;;;;;;32.57;10.80;;;8.90;99.90;;;;;;5029909;28;20594;-73
2024/03/12 03:52:05;;;;;;;44.20;15.77;;;8.90;99.90;;;;;;5033105;28;20470;-73
2024/03/12 03:54:31;;;;;;;42.63;15.73;;;8.90;99.90;;;;;;5032311;28;20474;-72
2024/03/12 03:56:58;;;;;;;40.80;15.47;;;8.90;99.90;;;;;;5033190;28;20463;-72
2024/03/12 03:59:25;;;;;;;39.90;15.97;;;8.90;99.90;;;;;;5029180;28;20475;-71
2024/03/12 04:01:52;;;;;;;39.53;13.13;;;8.80;99.90;;;;;;5026055;28;20430;-72
2024/03/12 04:04:19;;;;;;;47.80;16.20;;;8.90;99.90;;;;;;5030395;28;20467;-72
2024/03/12 04:06:47;;;;;;;26.37;13.60;;;8.90;99.90;;;;;;5034072;28;21112;-71
2024/03/12 04:09:15;;;;;;;26.27;14.83;;;9.00;99.90;;;;;;5025695;28;20799;-72
2024/03/12 04:11:43;;;;;;;34.70;17.23;;;8.90;99.90;;;;;;5027441;28;20546;-73
2024/03/12 04:14:09;;;;;;;37.20;15.07;;;9.00;99.90;;;;;;5027783;28;20455;-73
2024/03/12 04:16:36;;;;;;;38.83;15.33;;;9.00;99.90;;;;;;5028567;28;20748;-73
2024/03/12 04:19:04;;;;;;;33.33;15.63;;;9.00;99.90;;;;;;5034741;28;20478;-72
2024/03/12 04:21:31;;;;;;;32.07;14.17;;;9.00;99.90;;;;;;5030726;28;20826;-72
2024/03/12 04:24:00;;;;;;;35.97;16.80;;;8.90;99.90;;;;;;5032394;28;20491;-72
2024/03/12 04:26:28;;;;;;;28.40;13.60;;;8.90;99.90;;;;;;5032588;28;20437;-72
2024/03/12 04:28:55;;;;;;;38.73;13.30;;;9.00;99.90;;;;;;5035515;28;20523;-73
2024/03/12 04:31:23;;;;;;;45.20;17.33;;;9.00;99.90;;;;;;5032870;28;20591;-73
2024/03/12 04:33:52;;;;;;;27.97;14.57;;;9.00;99.90;;;;;;5034151;28;20596;-73
2024/03/12 04:36:22;;;;;;;42.93;16.73;;;9.10;99.90;;;;;;5036699;28;20459;-74
2024/03/12 04:38:49;;;;;;;22.87;13.90;;;9.10;99.90;;;;;;5030726;28;20460;-73
2024/03/12 04:41:17;;;;;;;31.07;14.03;;;9.10;99.90;;;;;;5025310;28;20496;-72
2024/03/12 04:43:44;;;;;;;27.90;13.03;;;9.00;99.90;;;;;;5021814;28;20433;-73
2024/03/12 04:46:11;;;;;;;20.33;11.37;;;9.10;99.90;;;;;;5034294;28;20451;-72
2024/03/12 04:48:38;;;;;;;27.87;13.67;;;9.10;99.90;;;;;;5040383;28;20450;-73
2024/03/12 04:51:05;;;;;;;26.43;13.70;;;9.20;99.90;;;;;;5037412;28;20463;-73
2024/03/12 04:53:31;;;;;;;32.77;14.63;;;9.20;99.90;;;;;;5042517;28;20441;-73
2024/03/12 04:55:58;;;;;;;30.13;14.13;;;9.20;99.90;;;;;;5031109;28;20456;-73
2024/03/12 04:58:26;;;;;;;26.50;11.27;;;9.20;99.90;;;;;;5023800;28;20515;-72
2024/03/12 05:00:53;;;;;;;20.90;9.67;;;9.10;99.90;;;;;;5030783;28;21122;-72
2024/03/12 05:03:20;;;;;;;23.97;12.30;;;9.20;99.90;;;;;;5029307;28;20472;-73
2024/03/12 05:05:47;;;;;;;28.63;12.13;;;9.20;99.90;;;;;;5032967;28;20894;-72
2024/03/12 05:08:13;;;;;;;29.60;14.77;;;9.10;99.90;;;;;;5022607;28;21311;-72
2024/03/12 05:10:40;;;;;;;20.90;11.77;;;9.20;99.90;;;;;;5028604;28;20491;-72
2024/03/12 05:13:07;;;;;;;18.43;11.20;;;9.10;99.90;;;;;;5031947;28;20449;-72
2024/03/12 05:15:35;;;;;;;25.60;10.53;;;9.20;99.90;;;;;;5034442;28;20698;-73
2024/03/12 05:18:02;;;;;;;20.57;9.23;;;9.10;99.90;;;;;;5031421;28;20462;-73
2024/03/12 05:20:33;;;;;;;24.57;9.73;;;9.10;99.90;;;;;;5028077;28;20449;-72
2024/03/12 05:23:02;;;;;;;22.47;11.23;;;9.10;99.90;;;;;;5025782;28;20456;-72
2024/03/12 05:25:38;;;;;;;20.43;9.53;;;9.10;99.90;;;;;;5028308;28;20471;-74
2024/03/12 05:28:07;;;;;;;13.77;8.83;;;9.30;99.90;;;;;;5033093;28;20494;-72
2024/03/12 05:30:37;;;;;;;24.13;10.37;;;9.30;99.90;;;;;;5036451;28;20611;-73
2024/03/12 05:33:09;;;;;;;27.73;11.47;;;9.20;99.90;;;;;;5039492;28;23603;-73
2024/03/12 05:35:38;;;;;;;19.87;9.57;;;9.10;99.90;;;;;;5039525;28;20479;-72
2024/03/12 05:38:11;;;;;;;20.60;12.17;;;9.20;99.90;;;;;;5035304;28;20483;-72
2024/03/12 05:40:42;;;;;;;23.63;11.40;;;9.00;99.90;;;;;;5005747;28;20940;-72
2024/03/12 05:48:40;;;;;;;16.37;7.80;;;9.10;99.90;;;;;;5035525;28;20479;-72
2024/03/12 05:51:08;;;;;;;20.33;9.60;;;9.00;99.90;;;;;;5039232;28;20452;-72
2024/03/12 05:53:36;;;;;;;23.87;10.20;;;9.00;99.90;;;;;;5037747;28;20444;-72
2024/03/12 05:56:05;;;;;;;20.73;10.57;;;9.00;99.90;;;;;;5034206;28;20495;-72
2024/03/12 05:58:32;;;;;;;16.83;10.20;;;9.00;99.90;;;;;;5033733;28;20613;-72
2024/03/12 06:01:00;;;;;;;22.63;10.23;;;9.10;99.90;;;;;;5030152;28;20611;-73
2024/03/12 06:03:27;;;;;;;15.07;8.00;;;9.10;99.90;;;;;;5042184;28;20586;-72
2024/03/12 06:05:53;;;;;;;18.07;11.27;;;9.10;99.90;;;;;;5039658;28;20442;-73
2024/03/12 06:08:21;;;;;;;15.70;8.43;;;9.10;99.90;;;;;;5034107;28;21106;-72
2024/03/12 06:10:49;;;;;;;13.63;6.83;;;9.00;99.90;;;;;;5027951;28;21192;-72
2024/03/12 06:13:16;;;;;;;21.70;9.73;;;8.90;99.90;;;;;;5044150;28;20982;-72
2024/03/12 06:15:44;;;;;;;17.43;9.43;;;8.90;99.90;;;;;;5042363;28;20767;-72
2024/03/12 06:18:13;;;;;;;16.90;10.57;;;8.90;99.90;;;;;;5040681;28;20454;-73
2024/03/12 06:20:40;;;;;;;20.30;11.07;;;8.90;99.90;;;;;;5034593;28;21005;-73
2024/03/12 06:23:07;;;;;;;18.90;11.83;;;8.90;99.90;;;;;;5046054;28;20449;-73
2024/03/12 06:25:33;;;;;;;18.70;12.30;;;8.90;99.90;;;;;;5143439;22;22479;-70
2024/03/12 06:28:05;;;;;;;22.10;12.43;;;8.90;99.90;;;;;;5038527;28;20445;-70
2024/03/12 06:30:32;;;;;;;13.97;10.20;;;8.80;99.90;;;;;;5035149;28;20464;-70
2024/03/12 06:32:58;;;;;;;14.20;8.27;;;8.90;99.90;;;;;;5038109;28;20517;-70
2024/03/12 06:35:27;;;;;;;18.83;9.70;;;9.00;99.90;;;;;;5035713;28;20937;-70
2024/03/12 06:37:54;;;;;;;23.40;12.30;;;9.00;99.90;;;;;;5038599;28;20449;-70
2024/03/12 06:40:25;;;;;;;17.37;12.00;;;9.00;99.90;;;;;;5034885;28;20466;-71
2024/03/12 06:42:52;;;;;;;19.63;9.73;;;9.00;99.90;;;;;;5033118;28;20442;-70
2024/03/12 06:45:18;;;;;;;18.50;9.20;;;9.00;99.90;;;;;;5036511;28;20463;-70
2024/03/12 06:47:48;;;;;;;38.53;11.20;;;9.10;99.90;;;;;;5034663;28;20776;-70
2024/03/12 06:50:14;;;;;;;21.30;11.23;;;9.10;99.90;;;;;;5035381;28;20507;-70
2024/03/12 06:52:47;;;;;;;15.30;8.93;;;9.20;99.90;;;;;;5035104;28;20474;-70
2024/03/12 06:55:15;;;;;;;22.97;11.50;;;9.20;99.90;;;;;;5035137;28;20462;-70
2024/03/12 06:57:47;;;;;;;14.13;8.77;;;9.30;99.90;;;;;;5039583;28;20545;-70
2024/03/12 07:00:15;;;;;;;8.13;5.63;;;9.40;99.90;;;;;;5041283;28;20529;-70
2024/03/12 07:02:42;;;;;;;15.47;9.70;;;9.30;99.90;;;;;;5048614;28;20430;-70
2024/03/12 07:05:09;;;;;;;11.43;7.90;;;9.10;99.90;;;;;;5037628;28;20543;-70
2024/03/12 07:07:43;;;;;;;14.47;8.10;;;9.10;99.90;;;;;;5021557;28;20539;-71
2024/03/12 07:10:11;;;;;;;13.47;7.53;;;8.90;99.90;;;;;;5036747;28;20979;-71
2024/03/12 07:12:39;;;;;;;9.00;5.57;;;8.80;99.90;;;;;;5035167;28;20441;-71
2024/03/12 07:15:07;;;;;;;3.90;3.43;;;8.70;99.90;;;;;;5032116;28;20470;-70
2024/03/12 07:17:34;;;;;;;11.20;6.37;;;8.70;99.90;;;;;;5036358;28;20467;-69
2024/03/12 07:20:01;;;;;;;7.23;4.40;;;8.60;99.90;;;;;;5030758;28;20814;-70
2024/03/12 07:22:28;;;;;;;20.93;9.13;;;8.60;99.90;;;;;;5035710;28;20651;-70
2024/03/12 07:24:55;;;;;;;9.93;7.03;;;8.50;99.90;;;;;;5037012;28;20468;-70
2024/03/12 07:27:24;;;;;;;11.60;7.27;;;8.50;99.90;;;;;;5032625;28;21130;-70
2024/03/12 07:29:50;;;;;;;8.80;6.77;;;8.50;99.90;;;;;;5042368;28;20475;-70
2024/03/12 07:32:17;;;;;;;17.97;7.77;;;8.50;99.90;;;;;;5034684;28;20478;-70
2024/03/12 07:34:44;;;;;;;17.77;8.57;;;8.50;99.90;;;;;;5029711;28;20466;-70
2024/03/12 07:37:13;;;;;;;18.33;8.23;;;8.60;99.90;;;;;;5035226;28;20456;-70
2024/03/12 07:39:39;;;;;;;16.00;9.13;;;8.60;99.90;;;;;;5033426;28;20921;-71
2024/03/12 07:42:09;;;;;;;17.40;9.60;;;8.80;99.90;;;;;;5039321;28;20467;-70
2024/03/12 07:44:37;;;;;;;12.70;7.37;;;8.80;99.90;;;;;;5035017;28;20497;-71
2024/03/12 07:47:04;;;;;;;16.70;8.10;;;8.90;99.90;;;;;;5036672;28;20455;-70
2024/03/12 07:49:32;;;;;;;15.30;8.73;;;8.90;99.90;;;;;;5034624;28;20472;-71
2024/03/12 07:52:00;;;;;;;17.67;10.40;;;8.70;99.90;;;;;;5028927;28;20468;-71
2024/03/12 07:54:27;;;;;;;15.90;8.27;;;8.80;99.90;;;;;;5034241;28;20475;-71
2024/03/12 07:56:54;;;;;;;16.97;7.50;;;8.70;99.90;;;;;;5037316;28;20458;-69
2024/03/12 07:59:23;;;;;;;14.00;8.93;;;8.60;99.90;;;;;;5039310;28;20473;-70
2024/03/12 08:01:52;;;;;;;16.53;8.43;;;8.50;99.90;;;;;;5039442;28;20433;-69
2024/03/12 08:04:19;;;;;;;10.73;5.07;;;8.30;99.90;;;;;;5040123;28;20462;-70
2024/03/12 08:06:46;;;;;;;13.43;7.97;;;8.20;99.90;;;;;;5035616;28;20464;-70
2024/03/12 08:09:13;;;;;;;16.40;7.47;;;8.10;99.90;;;;;;5033269;28;20580;-70
2024/03/12 08:11:41;;;;;;;21.67;8.83;;;8.20;99.90;;;;;;5031868;28;20471;-70
2024/03/12 08:14:08;;;;;;;16.63;9.10;;;8.20;99.90;;;;;;5035169;28;20494;-70
2024/03/12 08:16:36;;;;;;;9.47;5.50;;;8.30;99.90;;;;;;5035135;28;20438;-70
2024/03/12 08:19:04;;;;;;;15.10;7.00;;;8.50;99.90;;;;;;5039662;28;20497;-70
2024/03/12 08:21:32;;;;;;;10.60;7.53;;;8.60;99.90;;;;;;5036343;28;20471;-69
2024/03/12 08:23:59;;;;;;;18.07;10.27;;;8.60;99.90;;;;;;5037614;28;20441;-69
2024/03/12 08:26:27;;;;;;;21.87;10.47;;;8.60;99.90;;;;;;5034879;28;20467;-69
2024/03/12 08:28:55;;;;;;;16.63;8.60;;;8.70;99.90;;;;;;5037571;28;20451;-69
2024/03/12 08:31:22;;;;;;;14.53;7.50;;;8.80;99.90;;;;;;5043180;28;20882;-70
2024/03/12 08:33:49;;;;;;;11.77;8.03;;;8.90;99.90;;;;;;5031564;28;20562;-69
2024/03/12 08:36:17;;;;;;;13.03;6.80;;;8.90;99.90;;;;;;5024490;28;20439;-69
2024/03/12 08:38:44;;;;;;;18.07;8.97;;;8.90;99.90;;;;;;5038067;28;20506;-70
2024/03/12 08:41:11;;;;;;;18.03;8.13;;;9.00;99.90;;;;;;5036411;28;20480;-70
2024/03/12 08:43:38;;;;;;;22.77;12.10;;;9.20;99.90;;;;;;5033817;28;20472;-70
2024/03/12 08:46:06;;;;;;;12.33;7.37;;;9.30;99.90;;;;;;5035010;28;20461;-70
2024/03/12 08:48:34;;;;;;;13.37;8.00;;;9.40;99.90;;;;;;5029418;28;21209;-70
2024/03/12 08:51:02;;;;;;;13.50;7.60;;;9.40;99.90;;;;;;5037932;28;20624;-70
2024/03/12 08:53:30;;;;;;;16.23;8.43;;;9.40;99.90;;;;;;5031561;28;20496;-69
2024/03/12 08:55:58;;;;;;;13.00;6.80;;;9.40;99.90;;;;;;5032830;28;20467;-70
2024/03/12 08:58:25;;;;;;;28.47;9.83;;;9.40;99.90;;;;;;5038576;28;20468;-69
2024/03/12 09:00:52;;;;;;;16.67;8.17;;;9.30;99.90;;;;;;5039903;28;20908;-69
2024/03/12 09:03:19;;;;;;;14.73;6.20;;;9.40;99.90;;;;;;5031666;28;20430;-70
2024/03/12 09:05:46;;;;;;;19.43;11.40;;;9.30;99.90;;;;;;5038571;28;20451;-70
2024/03/12 09:08:13;;;;;;;17.33;8.70;;;9.30;99.90;;;;;;5035967;28;20589;-70
2024/03/12 09:10:42;;;;;;;22.10;11.60;;;9.40;99.90;;;;;;5036653;28;20471;-70
2024/03/12 09:13:08;;;;;;;17.30;9.83;;;9.40;99.90;;;;;;5033962;28;20447;-69
2024/03/12 09:15:35;;;;;;;24.20;13.00;;;9.30;99.90;;;;;;5036692;28;20766;-70
2024/03/12 09:18:04;;;;;;;18.37;10.77;;;9.30;99.90;;;;;;5037333;28;20455;-69
2024/03/12 09:20:31;;;;;;;16.37;8.80;;;9.30;99.90;;;;;;5034190;28;20493;-71
2024/03/12 09:22:59;;;;;;;25.87;11.03;;;9.20;99.90;;;;;;5037609;28;20582;-70
2024/03/12 09:25:26;;;;;;;20.83;11.30;;;9.40;99.90;;;;;;5039099;28;20569;-70
2024/03/12 09:27:54;;;;;;;20.13;11.43;;;9.60;99.90;;;;;;5041379;28;20986;-70
2024/03/12 09:30:21;;;;;;;17.63;9.60;;;9.70;99.90;;;;;;5039760;28;20480;-69
2024/03/12 09:32:48;;;;;;;20.87;11.10;;;9.50;99.90;;;;;;5041391;28;20448;-70
2024/03/12 09:35:14;;;;;;;18.13;8.60;;;9.40;99.90;;;;;;5037184;28;20448;-70
2024/03/12 09:37:42;;;;;;;15.50;8.67;;;9.40;99.90;;;;;;5035094;28;20463;-70
2024/03/12 09:40:11;;;;;;;22.90;9.60;;;9.40;99.90;;;;;;5045173;28;20506;-70
2024/03/12 09:42:38;;;;;;;20.37;8.20;;;9.40;99.90;;;;;;5041876;28;20468;-70
2024/03/12 09:45:08;;;;;;;13.60;7.03;;;9.40;99.90;;;;;;5041438;28;20459;-70
2024/03/12 09:47:35;;;;;;;18.53;7.87;;;9.20;99.90;;;;;;5038991;28;20434;-70
2024/03/12 09:50:03;;;;;;;12.13;5.90;;;9.10;99.90;;;;;;5037954;28;20459;-70
2024/03/12 09:52:30;;;;;;;14.83;9.27;;;9.10;99.90;;;;;;5033541;28;20467;-70
2024/03/12 09:54:58;;;;;;;12.50;6.60;;;9.00;99.90;;;;;;5037424;28;20456;-70
2024/03/12 09:57:27;;;;;;;13.57;8.40;;;9.10;99.90;;;;;;5039206;28;21022;-70
2024/03/12 09:59:53;;;;;;;15.43;6.97;;;9.20;99.90;;;;;;5033382;28;20566;-70
2024/03/12 10:02:23;;;;;;;13.97;8.33;;;9.10;99.90;;;;;;5038116;28;20465;-71
2024/03/12 10:04:50;;;;;;;23.87;10.57;;;9.20;99.90;;;;;;5045670;28;20463;-71
2024/03/12 10:07:17;;;;;;;23.83;9.20;;;9.30;99.90;;;;;;5034153;28;20437;-69
2024/03/12 10:09:44;;;;;;;14.63;9.30;;;9.30;99.90;;;;;;5037161;28;20536;-70
2024/03/12 10:12:10;;;;;;;16.20;7.87;;;9.30;99.90;;;;;;5038735;28;20442;-70
2024/03/12 10:14:37;;;;;;;13.77;9.30;;;9.10;99.90;;;;;;5032501;28;20464;-71
2024/03/12 10:17:13;;;;;;;14.07;7.50;;;9.00;99.90;;;;;;5038469;28;20853;-70
2024/03/12 10:19:43;;;;;;;15.77;8.60;;;9.00;99.90;;;;;;5038032;28;20765;-70
2024/03/12 10:22:11;;;;;;;17.30;7.13;;;9.00;99.90;;;;;;5040014;28;20870;-70
2024/03/12 10:24:38;;;;;;;9.37;8.07;;;9.00;99.90;;;;;;5037326;28;20886;-69
2024/03/12 10:27:06;;;;;;;29.33;11.87;;;8.90;99.90;;;;;;5037794;28;20463;-70
2024/03/12 10:29:35;;;;;;;8.00;5.70;;;8.90;99.90;;;;;;5038961;28;20534;-70
2024/03/12 10:32:18;;;;;;;13.13;7.80;;;9.00;99.90;;;;;;5032882;28;20517;-70
2024/03/12 10:34:47;;;;;;;11.87;6.40;;;8.90;99.90;;;;;;5042142;28;20906;-70
2024/03/12 10:37:27;;;;;;;17.57;7.53;;;9.00;99.90;;;;;;5032337;28;20464;-69
2024/03/12 10:39:53;;;;;;;10.67;7.10;;;9.00;99.90;;;;;;5041839;28;20487;-69
2024/03/12 10:42:22;;;;;;;16.60;6.53;;;9.20;99.90;;;;;;5034252;28;20949;-70
2024/03/12 10:44:49;;;;;;;14.00;8.20;;;9.30;99.90;;;;;;5040047;28;20463;-70
2024/03/12 10:47:16;;;;;;;18.53;8.23;;;9.20;99.90;;;;;;5037565;28;20445;-69
2024/03/12 10:49:47;;;;;;;15.27;9.17;;;9.20;99.90;;;;;;5042431;28;20471;-70
2024/03/12 10:52:17;;;;;;;14.87;8.70;;;9.20;99.90;;;;;;5039578;28;20468;-70
2024/03/12 10:54:47;;;;;;;15.70;8.37;;;9.10;99.90;;;;;;5042356;28;20467;-70
2024/03/12 10:57:14;;;;;;;7.50;5.93;;;9.00;99.90;;;;;;5040452;28;20430;-70
2024/03/12 10:59:43;;;;;;;22.10;8.83;;;9.10;99.90;;;;;;5039967;28;20480;-70
2024/03/12 11:02:11;;;;;;;17.80;9.10;;;9.00;99.90;;;;;;5038249;28;20438;-70
2024/03/12 11:04:39;;;;;;;17.37;9.63;;;9.10;99.90;;;;;;5036152;28;20591;-70
2024/03/12 11:07:08;;;;;;;21.80;10.27;;;9.20;99.90;;;;;;5033478;28;20833;-70
2024/03/12 11:09:37;;;;;;;24.20;10.37;;;9.00;99.90;;;;;;5035815;28;20492;-70
2024/03/12 11:12:05;;;;;;;19.27;9.30;;;9.00;99.90;;;;;;5041250;28;20430;-70
2024/03/12 11:14:32;;;;;;;21.30;7.90;;;9.00;99.90;;;;;;5037572;28;20460;-70
2024/03/12 11:17:00;;;;;;;17.80;7.77;;;9.10;99.90;;;;;;5038993;28;20553;-70
2024/03/12 11:19:27;;;;;;;17.00;9.67;;;9.10;99.90;;;;;;5036780;28;20567;-70
2024/03/12 11:22:01;;;;;;;14.40;7.43;;;9.10;99.90;;;;;;5044502;28;20454;-70
2024/03/12 11:24:29;;;;;;;18.50;8.67;;;9.20;99.90;;;;;;5036481;28;20471;-70
2024/03/12 11:26:59;;;;;;;20.43;9.97;;;9.20;99.90;;;;;;5037845;28;20552;-70
2024/03/12 11:30:08;;;;;;;13.73;8.30;;;9.30;99.90;;;;;;5042305;28;20495;-70
2024/03/12 11:32:35;;;;;;;9.17;7.47;;;9.50;99.90;;;;;;5033321;28;20470;-70
2024/03/12 11:35:08;;;;;;;15.97;7.53;;;9.60;99.90;;;;;;5036126;28;20470;-70
2024/03/12 11:37:38;;;;;;;11.80;7.83;;;9.40;99.90;;;;;;5032301;28;20464;-72
2024/03/12 11:40:27;;;;;;;17.97;8.40;;;9.30;99.90;;;;;;5038932;28;20484;-70
2024/03/12 11:42:56;;;;;;;16.43;8.80;;;9.40;99.90;;;;;;5038865;28;21338;-70
2024/03/12 11:45:36;;;;;;;12.83;5.97;;;9.50;99.90;;;;;;5039397;28;20463;-70
2024/03/12 11:48:06;;;;;;;24.87;8.50;;;9.50;99.90;;;;;;5038667;28;20490;-70
2024/03/12 11:50:36;;;;;;;17.90;9.10;;;9.60;99.90;;;;;;5034784;28;20546;-70
2024/03/12 11:53:15;;;;;;;21.70;11.33;;;9.70;99.90;;;;;;5028761;28;20455;-70
2024/03/12 11:56:00;;;;;;;13.23;7.23;;;9.60;99.90;;;;;;5037618;28;20541;-70
2024/03/12 11:58:32;;;;;;;11.23;7.17;;;9.40;99.90;;;;;;5041705;28;21165;-69
2024/03/12 12:00:59;;;;;;;23.63;10.00;;;9.40;99.90;;;;;;5039669;28;20490;-69
2024/03/12 12:03:27;;;;;;;19.10;8.40;;;9.30;99.90;;;;;;5038895;28;20483;-70
2024/03/12 12:05:54;;;;;;;13.53;5.93;;;9.30;99.90;;;;;;5045413;28;20430;-70
2024/03/12 12:08:21;;;;;;;14.77;10.77;;;9.10;99.90;;;;;;5046892;28;20475;-70
2024/03/12 12:10:59;;;;;;;20.97;11.97;;;9.20;99.90;;;;;;5038990;28;20475;-70
2024/03/12 12:13:26;;;;;;;16.43;7.93;;;9.20;99.90;;;;;;5037345;28;20442;-70
2024/03/12 12:16:00;;;;;;;24.40;8.50;;;9.20;99.90;;;;;;5012304;28;20467;-70
2024/03/12 12:18:28;;;;;;;18.67;7.97;;;9.10;99.90;;;;;;5036151;28;20857;-70
2024/03/12 12:20:58;;;;;;;12.63;6.63;;;9.10;99.90;;;;;;5036173;28;20952;-71
2024/03/12 12:23:26;;;;;;;15.83;8.77;;;9.10;99.90;;;;;;5029901;28;21572;-67
2024/03/12 12:25:55;;;;;;;15.20;7.77;;;9.10;99.90;;;;;;5454890;22;20500;-71
2024/03/12 12:28:24;;;;;;;19.43;6.50;;;9.10;99.90;;;;;;5097412;28;20456;-71
2024/03/12 12:30:55;;;;;;;16.23;6.17;;;9.20;99.90;;;;;;5086045;28;21008;-71
2024/03/12 12:33:25;;;;;;;16.13;9.13;;;9.20;99.90;;;;;;5085666;28;20461;-71
2024/03/12 12:35:54;;;;;;;17.20;9.27;;;9.40;99.90;;;;;;5086787;28;20458;-71
2024/03/12 12:38:23;;;;;;;15.30;7.97;;;9.40;99.90;;;;;;5081860;28;20458;-71
2024/03/12 12:40:52;;;;;;;23.47;9.83;;;9.50;99.90;;;;;;5089371;28;20598;-72
2024/03/12 12:43:19;;;;;;;23.07;11.70;;;9.50;99.90;;;;;;5088228;28;20439;-72
2024/03/12 12:45:47;;;;;;;25.20;10.77;;;9.70;99.90;;;;;;5094779;28;20548;-71
2024/03/12 12:48:16;;;;;;;23.43;8.60;;;9.80;99.90;;;;;;5089928;28;20431;-71
2024/03/12 12:50:44;;;;;;;22.37;10.50;;;10.00;99.90;;;;;;5090822;28;20472;-72
2024/03/12 12:53:12;;;;;;;17.07;9.83;;;10.10;99.90;;;;;;5092369;28;20457;-73